Terminal Aerodrome Forecast
Issued by NWS Mt. Holly, NJ

Current Version | Previous Version | Text Only | Print | Product List | Glossary On
Versions: 1 2 3 4 5 6 7 8 9 10 11 12 13 14 15 16 17 18 19 20 21
000
FTUS41 KPHI 192200 AAB
TAFACY
TAF AMD
KACY 192203Z 1922/2018 12010KT P6SM BKN250
     FM200000 08007KT P6SM SCT250
     FM200600 05010KT P6SM SKC
     FM201200 06012G21KT P6SM SKC=

USA.gov is the U.S. government's official web portal to all federal, state and local government web resources and services.